Bonita, California
Current Conditions -  °F | °C
As of 11:53 PM on Wednesday 26 Nov 2014 (Local Time) from KSDM Reporting Station
Clear Clear  
Wind Chill: 59°   Ceiling: Unl
Heat Index: 59°   Visibility: 10mi
Dew Point: 25°   Wind: 5mph
Humidity: 27%   Direction: 110°ESE
Pressure: 30.12"   Gusts: NA
Location:  32.67°N, 117.01°W
Report Text: KSDM 270753Z AUTO 11004KT 10SM CLR 15/M04 A3012 RMK AO2 SLP193 T01501039 402890100 $
Loading
Personal Weather Stations






























Interactive Weather Map New forecast layout! Learn more

10-Day Weather Forecast

Advertisements
Track Severe Weather on mobile